createdAt,value
2022-10-17T00:00:34.637Z,9
2022-10-17T00:02:34.276Z,7.6
2022-10-17T00:06:33.545Z,8.4
2022-10-17T00:08:33.184Z,9.5
2022-10-17T00:10:36.214Z,9.2
2022-10-17T00:12:35.895Z,8.9
2022-10-17T00:14:35.555Z,8.7
2022-10-17T00:16:35.180Z,9.4
2022-10-17T00:18:34.842Z,9.5
2022-10-17T00:20:34.466Z,10.3
2022-10-17T00:22:34.149Z,10
2022-10-17T00:26:36.865Z,10
2022-10-17T00:28:36.564Z,10.8
2022-10-17T00:30:36.151Z,11.1
2022-10-17T00:32:35.818Z,10.8
2022-10-17T00:34:35.456Z,10.6
2022-10-17T00:36:35.100Z,10.2
2022-10-17T00:38:38.207Z,10.6
2022-10-17T00:40:37.838Z,10.6
2022-10-17T00:42:37.515Z,11.2
2022-10-17T00:43:39.077Z,11.6
2022-10-17T00:45:38.719Z,10.6
2022-10-17T00:47:38.382Z,11.5
2022-10-17T00:49:38.022Z,12.3
2022-10-17T00:51:41.121Z,12.8
2022-10-17T00:53:40.763Z,12.8
2022-10-17T00:55:40.447Z,11.7
2022-10-17T00:57:40.103Z,13.7
2022-10-17T00:59:39.780Z,11.7
2022-10-17T01:01:39.534Z,12.5
2022-10-17T01:03:39.126Z,13.2
2022-10-17T01:07:41.864Z,14.7
2022-10-17T01:09:43.112Z,14.8
2022-10-17T01:11:42.738Z,14.6
2022-10-17T01:13:42.387Z,14.6
2022-10-17T01:15:42.047Z,14.8
2022-10-17T01:17:41.714Z,12.8
2022-10-17T01:19:44.787Z,16.4
2022-10-17T01:23:44.113Z,15.3
2022-10-17T01:25:43.774Z,15.6
2022-10-17T01:27:43.440Z,19.4
2022-10-17T01:29:43.095Z,17.7
2022-10-17T01:31:42.741Z,16.7
2022-10-17T01:33:45.810Z,18.1
2022-10-17T01:35:45.473Z,17.5
2022-10-17T01:37:47.316Z,16.8
2022-10-17T01:38:46.641Z,17.1
2022-10-17T01:40:46.291Z,16.7
2022-10-17T01:42:45.939Z,16.9
2022-10-17T01:44:45.603Z,16.9
2022-10-17T01:54:47.280Z,17.4
2022-10-17T01:56:46.925Z,15.9
2022-10-17T01:58:46.603Z,16.3
2022-10-17T02:00:49.650Z,17.8
2022-10-17T02:02:49.312Z,17.7
2022-10-17T02:04:48.969Z,17.8
2022-10-17T02:06:48.584Z,17.4
2022-10-17T02:08:48.240Z,17.8
2022-10-17T02:10:47.894Z,17.9
2022-10-17T02:12:47.541Z,16.5
2022-10-17T02:14:50.591Z,16.9
2022-10-17T02:16:50.248Z,19
2022-10-17T02:18:49.900Z,16.7
2022-10-17T02:20:49.569Z,16.8
2022-10-17T02:22:49.198Z,16.3
2022-10-17T02:24:48.888Z,16.3
2022-10-17T02:26:48.513Z,16.9
2022-10-17T02:28:51.684Z,18.2
2022-10-17T02:30:51.239Z,16.8
2022-10-17T02:32:53.303Z,17.4
2022-10-17T02:33:52.461Z,17.4
2022-10-17T02:35:52.079Z,16.5
2022-10-17T02:37:51.696Z,17
2022-10-17T02:39:51.371Z,16.6
2022-10-17T02:41:54.421Z,18.2
2022-10-17T02:43:56.633Z,18
2022-10-17T02:45:53.709Z,17
2022-10-17T02:49:53.034Z,18.5
2022-10-17T02:51:52.693Z,17.3
2022-10-17T02:53:52.343Z,18.9
2022-10-17T02:55:55.416Z,18.6
2022-10-17T02:57:55.034Z,18.5
2022-10-17T02:59:54.697Z,18.6
2022-10-17T03:01:54.322Z,18.6
2022-10-17T03:03:53.966Z,18.1
2022-10-17T03:05:53.644Z,16.9
2022-10-17T03:07:53.295Z,18.1
2022-10-17T03:23:57.232Z,17.2
2022-10-17T03:25:56.853Z,15.9
2022-10-17T03:27:56.506Z,16.6
2022-10-17T03:30:18.002Z,17.6
2022-10-17T03:32:17.656Z,16.3
2022-10-17T03:36:20.341Z,17.6
2022-10-17T03:38:20.000Z,15.4
2022-10-17T03:40:19.607Z,15.8
2022-10-17T03:42:19.257Z,17.5
2022-10-17T03:44:18.932Z,15.3
2022-10-17T03:48:18.222Z,16.1
2022-10-17T03:50:21.278Z,17.9
2022-10-17T03:52:20.931Z,18.1
2022-10-17T03:54:20.550Z,16.2
2022-10-17T03:56:20.170Z,17.6
2022-10-17T03:58:19.868Z,17.5
2022-10-17T04:00:19.505Z,17.8
2022-10-17T04:02:19.181Z,17.8
2022-10-17T04:04:22.202Z,19.6
2022-10-17T04:06:21.828Z,18.1
2022-10-17T04:08:21.467Z,18.9
2022-10-17T04:10:21.107Z,20
2022-10-17T04:12:20.770Z,16.8
2022-10-17T04:14:20.430Z,17.9
2022-10-17T04:16:20.040Z,19.7
2022-10-17T04:18:23.077Z,20.4
2022-10-17T04:20:22.692Z,19.1
2022-10-17T04:22:22.337Z,19.2
2022-10-17T04:23:23.859Z,20.4
2022-10-17T04:25:23.531Z,20.2
2022-10-17T04:27:23.129Z,20.2
2022-10-17T04:29:22.773Z,20.1
2022-10-17T04:31:25.789Z,21.9
2022-10-17T04:33:25.445Z,19.8
2022-10-17T04:37:24.715Z,20.5
2022-10-17T04:39:24.351Z,21.2
2022-10-17T04:41:23.961Z,18.7
2022-10-17T04:43:23.601Z,18.7
2022-10-17T04:45:26.652Z,21.2
2022-10-17T04:47:26.268Z,20.4
2022-10-17T04:49:25.894Z,19.4
2022-10-17T04:53:25.173Z,20.9
2022-10-17T04:55:25.142Z,20.2
2022-10-17T04:57:24.736Z,18.3
2022-10-17T04:59:27.744Z,21
2022-10-17T05:01:27.434Z,19.2
2022-10-17T05:03:26.984Z,19.3
2022-10-17T05:05:26.629Z,21.2
2022-10-17T05:07:26.248Z,16.6
2022-10-17T05:09:25.869Z,17.5
2022-10-17T05:11:25.478Z,17.6
2022-10-17T05:13:28.516Z,19.8
2022-10-17T05:15:28.115Z,17.4
2022-10-17T05:17:27.769Z,17.9
2022-10-17T05:18:29.303Z,20.2
2022-10-17T05:20:28.890Z,20
2022-10-17T05:22:28.704Z,18.1
2022-10-17T05:24:28.112Z,15.9
2022-10-17T05:26:31.120Z,17.1
2022-10-17T05:28:30.813Z,16.4
2022-10-17T05:30:33.822Z,17.3
2022-10-17T05:32:30.301Z,15.1
2022-10-17T05:34:29.558Z,17.5
2022-10-17T05:36:29.159Z,16.3
2022-10-17T05:38:28.822Z,14.4
2022-10-17T05:40:31.818Z,17.2
2022-10-17T05:42:31.889Z,15.8
2022-10-17T05:44:31.052Z,17
2022-10-17T05:46:30.684Z,18.1
2022-10-17T05:48:30.332Z,14.9
2022-10-17T05:50:29.941Z,15
2022-10-17T05:52:29.818Z,17.9
2022-10-17T05:54:32.571Z,16.9
2022-10-17T05:58:49.280Z,17.1
2022-10-17T06:00:31.502Z,17.2
2022-10-17T06:02:31.462Z,17.8
2022-10-17T06:04:30.637Z,18
2022-10-17T06:06:30.285Z,16.8
2022-10-17T06:08:33.286Z,17.5
2022-10-17T06:10:32.930Z,15
2022-10-17T06:12:32.562Z,14.5
2022-10-17T06:13:34.030Z,16.5
2022-10-17T06:19:32.869Z,15.5
2022-10-17T06:21:35.883Z,17.3
2022-10-17T06:23:35.493Z,15
2022-10-17T06:25:35.117Z,16.2
2022-10-17T06:29:34.309Z,15.3
2022-10-17T06:31:33.927Z,16.7
2022-10-17T06:39:35.776Z,15.1
2022-10-17T06:41:35.345Z,15.9
2022-10-17T06:43:34.995Z,16.8
2022-10-17T06:45:34.586Z,17.5
2022-10-17T06:47:34.177Z,15.2
2022-10-17T06:49:37.195Z,15.5
2022-10-17T06:51:36.772Z,16
2022-10-17T06:53:36.351Z,18.5
2022-10-17T06:55:37.530Z,17
2022-10-17T06:57:37.034Z,17.2
2022-10-17T06:59:36.614Z,17.9
2022-10-17T07:01:36.774Z,16.6
2022-10-17T07:03:39.236Z,20.4
2022-10-17T07:05:38.822Z,17.6
2022-10-17T07:07:41.446Z,17.7
2022-10-17T07:09:56.015Z,-1
2022-10-17T07:12:00.405Z,17
2022-10-17T07:14:00.008Z,17.9
2022-10-17T07:16:03.013Z,19.8
2022-10-17T07:18:02.579Z,18
2022-10-17T07:20:02.173Z,19.6
2022-10-17T07:22:01.736Z,18.2
2022-10-17T07:24:01.310Z,17.4
2022-10-17T07:26:00.881Z,16.7
2022-10-17T07:28:00.461Z,17.5
2022-10-17T07:30:03.485Z,18.4
2022-10-17T07:32:03.046Z,17.4
2022-10-17T07:38:01.741Z,18.1
2022-10-17T07:40:01.286Z,16.1
2022-10-17T07:42:00.851Z,17.4
2022-10-17T07:44:03.853Z,18.9
2022-10-17T07:46:03.409Z,16.8
2022-10-17T07:48:02.960Z,15.8
2022-10-17T07:50:02.523Z,15.3
2022-10-17T07:54:01.643Z,17.6
2022-10-17T08:02:03.292Z,15.5
2022-10-17T08:03:04.785Z,16.2
2022-10-17T08:05:04.303Z,14.3
2022-10-17T08:07:18.549Z,14.4
2022-10-17T08:09:03.435Z,15.1
2022-10-17T08:11:06.400Z,15.4
2022-10-17T08:13:05.941Z,12.5
2022-10-17T08:15:05.475Z,14
2022-10-17T08:23:03.685Z,12.8
2022-10-17T08:25:06.603Z,11.5
2022-10-17T08:27:06.156Z,11.4
2022-10-17T08:29:05.719Z,10.6
2022-10-17T08:31:05.252Z,11.4
2022-10-17T08:33:04.772Z,9.6
2022-10-17T08:35:04.303Z,9.9
2022-10-17T08:37:03.922Z,7
2022-10-17T08:39:06.802Z,8.2
2022-10-17T08:41:06.319Z,7.1
2022-10-17T08:43:05.839Z,7
2022-10-17T08:47:04.916Z,7.4
2022-10-17T08:49:06.485Z,8.1
2022-10-17T08:51:03.959Z,7
2022-10-17T08:53:06.927Z,7.4
2022-10-17T08:55:06.480Z,7.6
2022-10-17T08:57:05.980Z,7.7
2022-10-17T08:58:07.439Z,8.4
2022-10-17T09:06:09.020Z,8.1
2022-10-17T09:08:08.556Z,10.5
2022-10-17T09:10:08.039Z,8
2022-10-17T09:12:07.576Z,10.2
2022-10-17T09:20:09.108Z,9.9
2022-10-17T09:22:08.622Z,9.5
2022-10-17T09:24:15.306Z,9.9
2022-10-17T09:26:07.696Z,9.2
2022-10-17T09:28:07.243Z,10.3
2022-10-17T09:30:07.278Z,9.4
2022-10-17T09:32:06.296Z,8.8
2022-10-17T09:34:09.228Z,9.7
2022-10-17T09:36:08.763Z,10.4
2022-10-17T09:38:08.281Z,9.3
2022-10-17T09:40:07.815Z,9.9
2022-10-17T09:42:07.325Z,9.4
2022-10-17T09:44:07.098Z,9.5
2022-10-17T09:46:06.381Z,9.6
2022-10-17T09:48:09.447Z,8.1
2022-10-17T09:50:08.885Z,8.6
2022-10-17T09:52:08.430Z,8.2
2022-10-17T09:53:54.022Z,8.6
2022-10-17T09:57:08.981Z,8.8
2022-10-17T10:01:11.533Z,8.8
2022-10-17T10:03:10.975Z,8.1
2022-10-17T10:05:10.503Z,8.7
2022-10-17T10:07:10.040Z,10.6
2022-10-17T10:09:09.623Z,8.9
2022-10-17T10:11:13.410Z,8
2022-10-17T10:13:08.649Z,8.2
2022-10-17T10:15:11.586Z,9.7
2022-10-17T10:17:11.100Z,8.6
2022-10-17T10:19:10.636Z,7.8
2022-10-17T10:21:10.181Z,7.7
2022-10-17T10:23:17.654Z,8.4
2022-10-17T10:25:09.270Z,8.1
2022-10-17T10:29:11.819Z,8.7
2022-10-17T10:31:11.283Z,9.7
2022-10-17T10:33:10.806Z,9.1
2022-10-17T10:35:10.346Z,8.8
2022-10-17T10:37:12.355Z,8.1
2022-10-17T10:39:09.381Z,8.3
2022-10-17T10:41:08.921Z,8.7
2022-10-17T10:43:11.870Z,9.1
2022-10-17T10:45:19.137Z,7.6
2022-10-17T10:47:10.920Z,7
2022-10-17T10:49:29.984Z,7.4
2022-10-17T10:51:29.476Z,9.1
2022-10-17T10:53:32.816Z,7.4
2022-10-17T10:55:31.950Z,8.1
2022-10-17T10:57:31.824Z,7.6
2022-10-17T10:59:31.001Z,7.9
2022-10-17T11:01:30.545Z,7.4
2022-10-17T11:03:30.114Z,8.1
2022-10-17T11:07:29.286Z,8
2022-10-17T11:09:33.745Z,6.8
2022-10-17T11:11:31.557Z,7.2
2022-10-17T11:13:31.073Z,7.1
2022-10-17T11:15:30.621Z,6.2
2022-10-17T11:17:30.544Z,6.4
2022-10-17T11:19:29.643Z,6.1
2022-10-17T11:21:29.439Z,5.7
2022-10-17T11:25:31.621Z,6.1
2022-10-17T11:27:31.158Z,5.3
2022-10-17T11:31:30.228Z,4.8
2022-10-17T11:33:29.748Z,4.9
2022-10-17T11:35:29.250Z,4.7
2022-10-17T11:37:32.193Z,4.7
2022-10-17T11:39:31.738Z,4.5
2022-10-17T11:41:31.274Z,4.1
2022-10-17T11:42:33.062Z,4.7
2022-10-17T11:44:32.242Z,4.4
2022-10-17T11:46:31.752Z,4.4
2022-10-17T11:48:31.279Z,4.5
2022-10-17T11:52:55.444Z,5.5
2022-10-17T11:54:33.246Z,4.7
2022-10-17T11:56:32.775Z,3.8
2022-10-17T11:58:32.268Z,4.8
2022-10-17T12:00:32.503Z,4.8
2022-10-17T12:02:31.802Z,4.2
2022-10-17T12:04:34.279Z,4.6
2022-10-17T12:06:33.755Z,4
2022-10-17T12:08:33.271Z,4.4
2022-10-17T12:10:32.758Z,3.8
2022-10-17T12:12:32.695Z,4.5
2022-10-17T12:14:31.766Z,3.7
2022-10-17T12:16:31.310Z,3.8
2022-10-17T12:20:33.715Z,4.1
2022-10-17T12:24:32.688Z,3.4
2022-10-17T12:26:32.178Z,3.4
2022-10-17T12:28:31.825Z,3.5
2022-10-17T12:30:31.191Z,3.4
2022-10-17T12:32:46.960Z,3.6
2022-10-17T12:34:33.654Z,3.2
2022-10-17T12:36:33.119Z,3.3
2022-10-17T12:37:34.560Z,2.7
2022-10-17T12:39:35.625Z,3.3
2022-10-17T12:49:36.500Z,3.5
2022-10-17T12:53:35.458Z,3.3
2022-10-17T12:55:34.970Z,3.3
2022-10-17T12:57:34.441Z,3.5
2022-10-17T12:59:37.351Z,4
2022-10-17T13:01:36.881Z,3.6
2022-10-17T13:03:36.332Z,3.6
2022-10-17T13:05:35.792Z,3.5
2022-10-17T13:07:35.303Z,3.8
2022-10-17T13:09:34.807Z,4
2022-10-17T13:11:34.278Z,3.8
2022-10-17T13:13:37.179Z,4.1
2022-10-17T13:19:35.641Z,3.5
2022-10-17T13:25:37.621Z,4.1
2022-10-17T13:29:36.533Z,4.7
2022-10-17T13:32:37.486Z,4.7
2022-10-17T13:40:49.040Z,4.5
2022-10-17T13:42:38.359Z,5.9
2022-10-17T13:44:42.697Z,4.9
2022-10-17T13:46:39.004Z,5.3
2022-10-17T13:48:36.851Z,6
2022-10-17T13:50:44.199Z,5.7
2022-10-17T13:52:35.853Z,5.4
2022-10-17T13:54:38.773Z,5.6
2022-10-17T13:56:38.246Z,6
2022-10-17T14:02:36.731Z,5.9
2022-10-17T14:06:35.720Z,6.3
2022-10-17T14:08:38.653Z,5.5
2022-10-17T14:10:38.104Z,6.3
2022-10-17T14:18:36.753Z,7.6
2022-10-17T14:22:38.527Z,7.4
2022-10-17T14:24:38.048Z,6.5
2022-10-17T14:26:37.515Z,6.6
2022-10-17T14:28:59.242Z,7
2022-10-17T14:30:58.727Z,7.2
2022-10-17T14:32:58.178Z,7.1
2022-10-17T14:35:18.857Z,6.8
2022-10-17T14:37:00.567Z,7.1
2022-10-17T14:39:00.058Z,6.1
2022-10-17T14:41:09.779Z,6.2
2022-10-17T14:42:59.012Z,5.5
2022-10-17T14:44:58.524Z,5.9
2022-10-17T14:46:58.011Z,7.1
2022-10-17T14:49:00.909Z,5.6
2022-10-17T14:53:01.966Z,5.7
2022-10-17T14:54:59.379Z,5.3
2022-10-17T14:56:58.852Z,6.2
2022-10-17T14:58:58.407Z,5.7
2022-10-17T15:00:57.841Z,4.7
2022-10-17T15:03:00.792Z,5.4
2022-10-17T15:05:00.262Z,5.3
2022-10-17T15:08:59.185Z,5.2
2022-10-17T15:13:04.604Z,5.2
2022-10-17T15:14:57.617Z,5.9
2022-10-17T15:17:00.518Z,5
2022-10-17T15:18:59.986Z,5
2022-10-17T15:21:04.969Z,5.9
2022-10-17T15:22:00.924Z,4.8
2022-10-17T15:25:59.873Z,5.6
2022-10-17T15:27:59.362Z,5.6
2022-10-17T15:30:02.262Z,6.3
2022-10-17T15:32:01.747Z,5.7
2022-10-17T15:34:01.200Z,6.5
2022-10-17T15:36:00.695Z,6.4
2022-10-17T15:44:02.099Z,9
2022-10-17T15:53:59.599Z,7.6
2022-10-17T15:55:59.010Z,6.2
2022-10-17T15:58:01.926Z,7
2022-10-17T16:02:00.882Z,6.4
2022-10-17T16:04:00.377Z,6.8
2022-10-17T16:05:59.877Z,6.8
2022-10-17T16:07:59.415Z,15.8
2022-10-17T16:12:01.806Z,8.4
2022-10-17T16:14:01.313Z,10.7
2022-10-17T16:16:00.799Z,8.9
2022-10-17T16:17:02.259Z,7.9
2022-10-17T16:19:02.409Z,10.3
2022-10-17T16:21:01.291Z,9.2
2022-10-17T16:23:00.823Z,9.4
2022-10-17T16:25:03.736Z,9.5
2022-10-17T16:27:03.265Z,14.8
2022-10-17T16:29:03.139Z,15.5
2022-10-17T16:31:02.316Z,22
2022-10-17T16:33:01.799Z,14.6
2022-10-17T16:35:01.330Z,20.3
2022-10-17T16:37:00.845Z,9.8
2022-10-17T16:39:03.784Z,13.3
2022-10-17T16:41:03.317Z,14.2
2022-10-17T16:43:02.817Z,17.8
2022-10-17T16:45:02.356Z,9.8
2022-10-17T16:47:01.876Z,11.7
2022-10-17T16:49:01.432Z,12.9
2022-10-17T16:53:03.910Z,14.4
2022-10-17T16:55:03.439Z,14.1
2022-10-17T17:03:01.565Z,18.4
2022-10-17T17:07:04.057Z,18.6
2022-10-17T17:09:03.550Z,14.7
2022-10-17T17:11:03.072Z,15.6
2022-10-17T17:12:04.539Z,14.6
2022-10-17T17:14:04.055Z,13.9
2022-10-17T17:16:03.582Z,14.1
2022-10-17T17:18:05.545Z,12.1
2022-10-17T17:20:06.002Z,11.6
2022-10-17T17:22:05.548Z,12
2022-10-17T17:24:05.082Z,13.7
2022-10-17T17:26:04.555Z,11.7
2022-10-17T17:28:04.062Z,11.7
2022-10-17T17:30:03.586Z,12.4
2022-10-17T17:32:03.073Z,17.2
2022-10-17T17:34:06.018Z,12.8
2022-10-17T17:36:05.545Z,14.8
2022-10-17T17:38:05.025Z,12.7
2022-10-17T17:40:04.536Z,13.2
2022-10-17T17:42:04.064Z,12.4
2022-10-17T17:48:06.029Z,10.7
2022-10-17T17:50:05.524Z,11.4
2022-10-17T17:52:05.033Z,12.6
2022-10-17T17:54:04.585Z,11.4
2022-10-17T17:56:04.091Z,12.3
2022-10-17T17:58:03.590Z,13
2022-10-17T18:00:03.144Z,12.5
2022-10-17T18:02:06.092Z,14.6
2022-10-17T18:04:05.560Z,12.7
2022-10-17T18:08:26.649Z,14.6
2022-10-17T18:10:26.155Z,16
2022-10-17T18:12:25.658Z,16.6
2022-10-17T18:14:28.613Z,15.1
2022-10-17T18:16:28.121Z,16
2022-10-17T18:18:27.636Z,16.7
2022-10-17T18:20:27.141Z,13.5
2022-10-17T18:22:26.701Z,15.2
2022-10-17T18:24:27.756Z,14.6
2022-10-17T18:26:27.252Z,15.8
2022-10-17T18:28:30.270Z,16.8
2022-10-17T18:30:32.314Z,14.7
2022-10-17T18:32:29.463Z,15.5
2022-10-17T18:34:28.742Z,18.3
2022-10-17T18:36:28.254Z,16.6
2022-10-17T18:38:27.782Z,20.5
2022-10-17T18:40:27.320Z,17.1
2022-10-17T18:42:30.644Z,16.8
2022-10-17T18:44:29.806Z,18.9
2022-10-17T18:46:29.327Z,24.9
2022-10-17T18:48:28.861Z,42.9
2022-10-17T18:50:28.382Z,16.7
2022-10-17T18:52:27.893Z,20.8
2022-10-17T18:56:30.421Z,20.2
2022-10-17T18:58:29.947Z,18.1
2022-10-17T19:00:29.472Z,17.3
2022-10-17T19:03:30.495Z,18.2
2022-10-17T19:05:30.023Z,19.1
2022-10-17T19:07:29.908Z,19.4
2022-10-17T19:09:32.513Z,20.7
2022-10-17T19:11:32.054Z,19.7
2022-10-17T19:13:31.736Z,19.1
2022-10-17T19:17:30.897Z,20.1
2022-10-17T19:23:32.792Z,23.9
2022-10-17T19:25:32.302Z,20.9
2022-10-17T19:27:32.192Z,22
2022-10-17T19:31:30.919Z,27.5
2022-10-17T19:33:30.478Z,24.2
2022-10-17T19:35:30.029Z,24
2022-10-17T19:37:33.174Z,25.4
2022-10-17T19:39:32.536Z,27.7
2022-10-17T19:41:32.066Z,25.9
2022-10-17T19:43:31.591Z,25.6
2022-10-17T19:45:31.158Z,25.3
2022-10-17T19:47:30.697Z,25.9
2022-10-17T19:49:30.264Z,26.2
2022-10-17T19:51:33.213Z,27.4
2022-10-17T19:56:33.806Z,27.4
2022-10-17T19:58:33.338Z,28.1
2022-10-17T20:12:33.682Z,25.4
2022-10-17T20:14:35.265Z,27.6
2022-10-17T20:16:32.677Z,28
2022-10-17T20:18:35.599Z,30.5
2022-10-17T20:20:35.121Z,28.5
2022-10-17T20:26:38.135Z,27.5
2022-10-17T20:28:33.358Z,27.9
2022-10-17T20:30:32.827Z,28.7
2022-10-17T20:32:39.499Z,30
2022-10-17T20:34:35.332Z,28.7
2022-10-17T20:36:34.829Z,32.8
2022-10-17T20:38:34.367Z,33.8
2022-10-17T20:40:35.333Z,30.9
2022-10-17T20:42:33.423Z,30.7
2022-10-17T20:44:33.026Z,30.4
2022-10-17T20:46:37.588Z,32.1
2022-10-17T20:50:35.013Z,32.7
2022-10-17T20:51:36.462Z,33.7
2022-10-17T20:53:37.364Z,34.9
2022-10-17T20:55:35.520Z,34.5
2022-10-17T20:57:35.052Z,29.4
2022-10-17T20:59:37.988Z,33.1
2022-10-17T21:01:37.540Z,31.4
2022-10-17T21:03:38.776Z,31.6
2022-10-17T21:05:36.639Z,32.2
2022-10-17T21:07:36.110Z,32.3
2022-10-17T21:09:35.653Z,31.8
2022-10-17T21:11:35.190Z,35
2022-10-17T21:13:38.133Z,31.7
2022-10-17T21:15:37.683Z,32
2022-10-17T21:17:37.208Z,27.9
2022-10-17T21:19:36.731Z,30.5
2022-10-17T21:21:36.282Z,30
2022-10-17T21:23:35.805Z,28.8
2022-10-17T21:25:35.347Z,31.7
2022-10-17T21:27:38.296Z,30.6
2022-10-17T21:29:37.827Z,28.6
2022-10-17T21:35:36.430Z,28.7
2022-10-17T21:37:35.956Z,30.2
2022-10-17T21:39:35.466Z,27.7
2022-10-17T21:41:38.421Z,29.8
2022-10-17T21:43:37.973Z,30.9
2022-10-17T21:45:37.507Z,28.1
2022-10-17T21:48:12.651Z,31.1
2022-10-17T21:49:58.624Z,29.1
2022-10-17T21:51:58.187Z,29.7
2022-10-17T21:54:04.393Z,28.9
2022-10-17T21:58:00.225Z,26.9
2022-10-17T21:59:59.773Z,26.9
2022-10-17T22:01:59.345Z,26.1
2022-10-17T22:03:58.826Z,27.6
2022-10-17T22:12:00.369Z,28.2
2022-10-17T22:13:59.925Z,26.7
2022-10-17T22:17:59.011Z,26
2022-10-17T22:19:58.545Z,26.8
2022-10-17T22:22:01.533Z,28.3
2022-10-17T22:26:00.555Z,25.3
2022-10-17T22:31:59.182Z,24.4
2022-10-17T22:36:01.796Z,27.2
2022-10-17T22:38:01.292Z,26
2022-10-17T22:40:00.831Z,28.1
2022-10-17T22:41:02.316Z,28.7
2022-10-17T22:43:01.848Z,26
2022-10-17T22:45:01.430Z,29.9
2022-10-17T22:47:00.924Z,29.2
2022-10-17T22:49:03.907Z,29.7
2022-10-17T22:51:03.455Z,26.3
2022-10-17T22:53:02.997Z,27.8
2022-10-17T22:55:02.567Z,30.3
2022-10-17T22:59:01.646Z,26.3
2022-10-17T23:01:01.222Z,27.5
2022-10-17T23:03:04.177Z,29.5
2022-10-17T23:05:03.752Z,29.8
2022-10-17T23:07:03.290Z,27.3
2022-10-17T23:09:02.853Z,27.4
2022-10-17T23:11:02.406Z,27.6
2022-10-17T23:13:01.960Z,28.1
2022-10-17T23:15:01.515Z,27.2
2022-10-17T23:17:04.487Z,28.2
2022-10-17T23:23:03.162Z,26.2
2022-10-17T23:25:02.766Z,26.5
2022-10-17T23:27:02.320Z,26.4
2022-10-17T23:29:01.961Z,26.3
2022-10-17T23:31:04.873Z,26.8
2022-10-17T23:33:04.443Z,27.9
2022-10-17T23:35:04.001Z,29.1
2022-10-17T23:36:05.501Z,26.5
2022-10-17T23:38:05.063Z,25.2
2022-10-17T23:40:04.621Z,26.7
2022-10-17T23:42:17.394Z,26.4
2022-10-17T23:44:07.174Z,26.7
2022-10-17T23:48:06.333Z,27.8
2022-10-17T23:50:05.911Z,24.5
2022-10-17T23:52:05.466Z,26.8
2022-10-17T23:54:05.025Z,27.8
2022-10-17T23:56:04.667Z,28.7
2022-10-17T23:58:07.600Z,30.3
